Time;durP1;ratioP1;P1;durP2;ratioP2;P2;SDS_P1;SDS_P2;PMS_P1;PMS_P2;Temp;Humidity;BMP_temperature;BMP_pressure;BME280_temperature;BME280_humidity;BME280_pressure;Samples;Min_cycle;Max_cycle;Signal;HPM_P1;HPM_P2
2021/07/19 00:00:18;;;;;;;1.20;1.10;;;;;;;18.94;47.21;101772.19;7991590;28;20037;-70
2021/07/19 00:04:08;;;;;;;2.95;1.48;;;;;;;18.91;47.16;101775.13;7990247;28;20037;-70
2021/07/19 00:07:59;;;;;;;2.20;1.38;;;;;;;18.81;47.42;101766.28;7991528;28;20097;-70
2021/07/19 00:11:49;;;;;;;4.15;1.23;;;;;;;18.76;47.53;101765.84;7992405;28;20033;-70
2021/07/19 00:15:40;;;;;;;4.38;1.90;;;;;;;18.72;47.29;101767.94;7991913;28;20040;-71
2021/07/19 00:19:31;;;;;;;3.40;1.40;;;;;;;18.70;47.39;101779.66;7960104;28;20044;-70
2021/07/19 00:23:21;;;;;;;5.35;1.80;;;;;;;18.65;47.54;101766.75;7978118;28;20052;-70
2021/07/19 00:27:12;;;;;;;6.47;1.80;;;;;;;18.60;47.86;101761.00;7983182;28;20033;-70
2021/07/19 00:31:03;;;;;;;2.25;1.38;;;;;;;18.55;47.54;101767.69;7985119;28;20397;-70
2021/07/19 00:34:54;;;;;;;1.98;1.45;;;;;;;18.52;48.08;101754.66;7984040;28;20515;-70
2021/07/19 00:38:51;;;;;;;2.22;1.65;;;;;;;18.47;47.87;101757.69;7982432;28;20123;-70
2021/07/19 00:42:46;;;;;;;2.35;1.60;;;;;;;18.44;48.18;101752.63;7968518;28;20033;-70
2021/07/19 00:46:40;;;;;;;4.65;1.52;;;;;;;18.39;47.89;101750.34;7978633;28;20049;-70
2021/07/19 00:50:38;;;;;;;2.08;1.50;;;;;;;18.36;48.13;101747.06;7986853;28;20020;-70
2021/07/19 00:54:31;;;;;;;1.98;1.40;;;;;;;18.30;48.13;101748.47;7986226;28;20045;-71
2021/07/19 00:58:28;;;;;;;1.73;1.30;;;;;;;18.27;48.23;101756.69;7976335;28;20036;-70
2021/07/19 01:02:20;;;;;;;3.40;1.60;;;;;;;18.22;48.55;101748.28;7987248;28;20502;-70
2021/07/19 01:06:17;;;;;;;4.72;1.88;;;;;;;18.17;48.25;101749.63;7988102;28;20033;-70
2021/07/19 01:10:16;;;;;;;5.25;1.83;;;;;;;18.12;48.29;101744.69;7985597;28;20039;-70
2021/07/19 01:14:07;;;;;;;1.92;1.45;;;;;;;18.01;48.27;101736.78;7986248;28;20032;-70
2021/07/19 01:18:03;;;;;;;6.50;1.67;;;;;;;18.05;48.41;101745.34;7979075;28;20128;-70
2021/07/19 01:22:22;;;;;;;6.38;2.00;;;;;;;17.97;48.49;101748.66;7979935;28;20489;-71
2021/07/19 01:26:17;;;;;;;2.42;1.35;;;;;;;17.92;48.55;101737.53;7982287;28;20041;-71
2021/07/19 01:30:08;;;;;;;2.05;1.60;;;;;;;17.88;48.54;101750.25;7982508;28;20028;-70
2021/07/19 01:34:04;;;;;;;2.85;1.55;;;;;;;17.84;48.67;101743.50;7985178;28;20055;-70
2021/07/19 01:37:57;;;;;;;2.67;1.70;;;;;;;17.81;48.85;101732.28;7982908;28;20041;-70
2021/07/19 01:41:59;;;;;;;2.45;1.77;;;;;;;17.74;48.93;101728.44;7984876;28;20474;-70
2021/07/19 01:45:50;;;;;;;3.33;2.30;;;;;;;17.72;49.17;101733.91;7987248;28;20028;-69
2021/07/19 01:49:45;;;;;;;2.78;1.65;;;;;;;17.64;49.05;101711.56;7986085;28;20043;-70
2021/07/19 01:53:36;;;;;;;2.90;1.98;;;;;;;17.64;48.99;101725.69;7979641;28;20549;-70
2021/07/19 01:57:28;;;;;;;3.15;1.73;;;;;;;17.58;49.22;101731.50;7991069;28;20029;-70
2021/07/19 02:01:22;;;;;;;1.60;1.45;;;;;;;17.53;48.87;101720.38;7986398;28;20033;-70
2021/07/19 02:05:15;;;;;;;1.88;1.38;;;;;;;17.49;49.37;101719.81;7987340;28;20043;-70
2021/07/19 02:09:16;;;;;;;2.65;1.60;;;;;;;17.45;49.29;101726.34;7979952;28;20064;-69
2021/07/19 02:13:23;;;;;;;2.97;1.83;;;;;;;17.35;49.31;101727.22;7988215;28;20521;-71
2021/07/19 02:17:16;;;;;;;2.72;1.83;;;;;;;17.34;49.24;101744.97;7992101;28;20109;-70
2021/07/19 02:21:08;;;;;;;4.72;1.60;;;;;;;17.32;49.36;101749.53;7987004;28;20690;-70
2021/07/19 02:25:20;;;;;;;1.73;1.58;;;;;;;17.28;49.42;101749.94;7980714;28;20033;-70
2021/07/19 02:29:18;;;;;;;5.82;1.73;;;;;;;17.24;49.50;101751.97;7977540;28;20037;-70
2021/07/19 02:33:12;;;;;;;3.20;1.90;;;;;;;17.19;49.46;101756.81;7976983;28;20060;-70
2021/07/19 02:37:06;;;;;;;3.70;2.03;;;;;;;17.13;49.74;101744.03;7992307;28;20045;-70
2021/07/19 02:41:07;;;;;;;5.00;1.90;;;;;;;17.13;49.94;101740.53;7993390;28;20048;-70
2021/07/19 02:45:03;;;;;;;3.00;1.90;;;;;;;17.08;49.84;101733.78;7980532;28;20056;-71
2021/07/19 02:49:11;;;;;;;3.35;2.03;;;;;;;17.06;50.04;101732.22;7979359;28;20694;-70
2021/07/19 02:53:14;;;;;;;3.67;2.10;;;;;;;17.02;49.98;101728.97;7979223;28;20041;-69
2021/07/19 02:57:08;;;;;;;3.47;1.98;;;;;;;17.00;49.84;101727.38;7979734;28;20457;-69
2021/07/19 03:01:05;;;;;;;4.45;1.90;;;;;;;16.95;50.09;101714.47;7985114;28;20045;-69
2021/07/19 03:04:58;;;;;;;5.18;2.00;;;;;;;16.93;50.06;101726.19;7982808;28;20037;-69
2021/07/19 03:08:52;;;;;;;2.70;1.98;;;;;;;16.90;50.10;101718.47;7983323;28;20061;-70
2021/07/19 03:13:07;;;;;;;2.70;1.83;;;;;;;16.85;50.28;101723.28;7987514;28;20060;-70
2021/07/19 03:16:58;;;;;;;4.55;2.10;;;;;;;16.81;50.32;101730.63;7987875;28;20037;-70
2021/07/19 03:20:51;;;;;;;4.00;1.80;;;;;;;16.79;50.40;101729.91;7990250;28;20492;-70
2021/07/19 03:24:45;;;;;;;4.15;1.83;;;;;;;16.75;50.35;101722.31;7992427;28;20029;-70
2021/07/19 03:28:40;;;;;;;3.22;2.25;;;;;;;16.71;50.43;101723.50;7992165;28;20040;-69
2021/07/19 03:32:32;;;;;;;2.72;2.03;;;;;;;16.68;50.55;101735.22;7975746;28;20049;-69
2021/07/19 03:36:32;;;;;;;7.38;2.15;;;;;;;16.64;50.80;101736.41;7958683;28;20029;-69
2021/07/19 03:40:24;;;;;;;3.30;1.90;;;;;;;16.60;50.76;101738.47;7977464;28;20031;-70
2021/07/19 03:44:22;;;;;;;4.70;1.80;;;;;;;16.56;50.79;101726.41;7977280;28;20087;-69
2021/07/19 03:48:17;;;;;;;2.67;1.90;;;;;;;16.57;51.06;101738.72;7978683;28;20079;-69
2021/07/19 03:52:11;;;;;;;3.58;2.25;;;;;;;16.56;50.98;101733.53;7981680;28;20059;-70
2021/07/19 03:56:02;;;;;;;3.00;2.10;;;;;;;16.54;51.04;101733.63;7983038;28;20095;-70
2021/07/19 03:59:58;;;;;;;3.75;2.28;;;;;;;16.54;51.21;101746.03;7987444;28;20096;-70
2021/07/19 04:03:54;;;;;;;4.60;2.40;;;;;;;16.53;51.17;101749.69;7990748;28;20038;-70
2021/07/19 04:07:53;;;;;;;4.75;2.08;;;;;;;16.51;51.33;101754.25;7988158;28;20040;-70
2021/07/19 04:11:44;;;;;;;4.35;2.20;;;;;;;16.46;51.48;101746.63;7989137;28;20108;-70
2021/07/19 04:15:45;;;;;;;3.80;2.22;;;;;;;16.51;51.53;101755.09;7982599;28;20029;-70
2021/07/19 04:19:37;;;;;;;5.13;2.50;;;;;;;16.49;51.64;101761.50;7980401;28;20034;-71
2021/07/19 04:23:31;;;;;;;2.78;1.83;;;;;;;16.50;51.56;101760.50;7973248;28;20120;-70
2021/07/19 04:27:43;;;;;;;3.72;2.25;;;;;;;16.49;51.69;101758.84;7975753;28;20550;-70
2021/07/19 04:31:34;;;;;;;5.57;2.60;;;;;;;16.49;51.63;101769.44;7981143;28;20075;-70
2021/07/19 04:35:28;;;;;;;6.93;2.53;;;;;;;16.50;51.66;101773.75;7978361;28;20032;-69
2021/07/19 04:39:19;;;;;;;3.35;2.53;;;;;;;16.51;51.78;101772.81;7979949;28;20064;-70
2021/07/19 04:43:11;;;;;;;2.55;2.05;;;;;;;16.52;51.96;101767.41;7964046;28;20050;-71
2021/07/19 04:47:02;;;;;;;5.25;2.30;;;;;;;16.56;51.85;101762.69;7982408;28;20406;-70
2021/07/19 04:50:53;;;;;;;3.95;2.45;;;;;;;16.55;51.95;101764.50;7985494;28;20029;-70
2021/07/19 04:54:44;;;;;;;2.50;2.20;;;;;;;16.59;51.93;101758.00;7988023;28;20030;-69
2021/07/19 04:58:36;;;;;;;7.18;2.83;;;;;;;16.73;52.15;101769.34;7988597;28;20034;-71
2021/07/19 05:02:29;;;;;;;3.55;2.50;;;;;;;16.84;52.28;101766.69;7988620;28;20036;-70
2021/07/19 05:06:23;;;;;;;4.43;2.75;;;;;;;16.95;52.11;101769.38;7988355;28;20045;-71
2021/07/19 05:10:16;;;;;;;4.55;2.85;;;;;;;17.06;52.21;101774.69;7990226;28;20030;-71
2021/07/19 05:14:07;;;;;;;4.47;2.90;;;;;;;17.11;52.20;101785.81;7978495;28;20044;-71
2021/07/19 05:17:59;;;;;;;3.55;2.67;;;;;;;17.28;52.29;101777.31;7975408;28;20038;-71
2021/07/19 05:21:52;;;;;;;10.70;3.22;;;;;;;17.52;52.44;101780.66;7975855;28;20040;-70
2021/07/19 05:25:43;;;;;;;5.72;2.90;;;;;;;17.84;52.59;101782.53;7977993;28;20030;-71
2021/07/19 05:29:34;;;;;;;4.85;2.92;;;;;;;17.96;52.39;101795.66;7982124;28;20058;-71
2021/07/19 05:33:25;;;;;;;7.07;3.25;;;;;;;18.02;52.06;101796.13;7983447;28;20025;-71
2021/07/19 05:37:16;;;;;;;7.90;3.25;;;;;;;18.19;52.07;101783.06;7987686;28;20745;-71
2021/07/19 05:41:08;;;;;;;5.85;3.53;;;;;;;18.39;52.06;101789.41;7991518;28;20603;-71
2021/07/19 05:44:58;;;;;;;8.93;3.45;;;;;;;18.91;51.91;101805.28;7989797;28;21076;-71
2021/07/19 05:48:49;;;;;;;5.00;3.20;;;;;;;19.43;52.11;101795.41;7991387;28;20523;-71
2021/07/19 05:52:40;;;;;;;5.60;3.90;;;;;;;19.74;51.51;101785.47;7994926;28;20029;-70
2021/07/19 05:56:32;;;;;;;5.43;3.28;;;;;;;19.79;51.48;101796.56;7989431;28;20044;-71
2021/07/19 06:00:22;;;;;;;5.63;3.13;;;;;;;19.81;51.26;101794.59;7976491;28;20052;-70
2021/07/19 06:04:13;;;;;;;5.40;3.15;;;;;;;19.82;50.96;101797.13;7968409;28;20453;-70
2021/07/19 06:08:05;;;;;;;6.53;3.47;;;;;;;19.89;50.92;101797.44;7991175;28;20037;-71
2021/07/19 06:11:55;;;;;;;8.13;3.58;;;;;;;20.16;50.84;101800.28;7990875;28;20030;-71
2021/07/19 06:15:46;;;;;;;5.70;3.80;;;;;;;20.52;50.80;101798.66;7973928;28;20037;-71
2021/07/19 06:19:37;;;;;;;7.15;4.25;;;;;;;20.69;50.37;101800.63;7991472;28;20025;-71
2021/07/19 06:23:27;;;;;;;7.50;3.80;;;;;;;20.91;49.82;101790.56;7988168;28;20164;-70
2021/07/19 06:27:18;;;;;;;9.32;4.45;;;;;;;21.09;49.43;101788.78;7957327;28;20757;-71
2021/07/19 06:31:11;;;;;;;10.32;4.45;;;;;;;21.21;49.17;101792.16;7958323;28;20125;-71
2021/07/19 06:35:02;;;;;;;4.43;3.13;;;;;;;21.28;48.99;101801.25;7959201;28;20651;-71
2021/07/19 06:38:53;;;;;;;11.18;4.88;;;;;;;21.33;48.71;101796.31;7958840;28;20060;-72
2021/07/19 06:42:43;;;;;;;5.82;4.10;;;;;;;21.31;48.74;101790.25;7964215;28;20747;-71
2021/07/19 06:46:34;;;;;;;8.77;4.75;;;;;;;21.31;48.57;101803.63;7964467;28;20084;-71
2021/07/19 06:50:24;;;;;;;9.95;4.13;;;;;;;21.24;48.72;101802.56;7965948;28;20501;-72
2021/07/19 06:54:16;;;;;;;6.90;4.20;;;;;;;21.38;48.61;101810.09;7961874;28;20092;-71
2021/07/19 06:58:07;;;;;;;8.68;3.85;;;;;;;21.41;48.44;101820.47;7962052;28;20034;-71
2021/07/19 07:01:57;;;;;;;10.30;3.97;;;;;;;21.25;48.26;101810.44;7962469;28;20062;-71
2021/07/19 07:05:48;;;;;;;10.38;5.07;;;;;;;21.04;48.16;101809.78;7963704;28;20053;-72
2021/07/19 07:09:39;;;;;;;6.28;3.78;;;;;;;20.82;48.63;101815.47;7963219;28;20034;-71
2021/07/19 07:13:29;;;;;;;6.85;3.97;;;;;;;20.64;48.43;101815.38;7958696;28;20448;-72
2021/07/19 07:17:32;;;;;;;7.25;4.30;;;;;;;20.45;48.26;101808.25;7963934;28;20037;-71
2021/07/19 07:21:24;;;;;;;6.35;3.95;;;;;;;20.35;48.49;101811.88;7962779;28;20036;-72
2021/07/19 07:25:14;;;;;;;7.80;3.80;;;;;;;20.35;48.43;101798.53;7959772;28;20034;-73
2021/07/19 07:29:05;;;;;;;6.00;4.13;;;;;;;20.43;48.58;101810.19;7961240;28;20060;-71
2021/07/19 07:32:55;;;;;;;7.72;4.13;;;;;;;20.53;48.11;101813.72;7964826;28;20045;-72
2021/07/19 07:36:46;;;;;;;7.93;4.00;;;;;;;20.57;47.92;101811.63;7961692;28;20045;-72
2021/07/19 07:40:37;;;;;;;6.25;3.28;;;;;;;20.59;48.08;101818.47;7958199;28;20026;-71
2021/07/19 07:44:28;;;;;;;6.93;3.90;;;;;;;20.67;47.82;101813.28;7960459;28;20037;-72
2021/07/19 07:48:19;;;;;;;7.00;4.15;;;;;;;20.75;47.48;101825.91;7965747;28;20029;-73
2021/07/19 07:52:09;;;;;;;14.55;4.50;;;;;;;20.80;47.46;101820.94;7965194;28;20044;-71
2021/07/19 07:56:00;;;;;;;9.18;4.32;;;;;;;20.87;47.54;101823.91;7961050;28;20598;-72
2021/07/19 07:59:51;;;;;;;7.07;4.47;;;;;;;20.92;47.42;101819.81;7963713;28;20155;-72
2021/07/19 08:03:41;;;;;;;11.30;4.63;;;;;;;20.98;47.65;101807.69;7963595;28;20088;-72
2021/07/19 08:07:32;;;;;;;6.90;3.47;;;;;;;21.09;47.39;101807.50;7963748;28;20722;-72
2021/07/19 08:11:26;;;;;;;6.35;4.45;;;;;;;21.02;47.37;101803.72;7962714;28;20030;-72
2021/07/19 08:15:17;;;;;;;7.82;4.35;;;;;;;21.13;47.17;101811.59;7965597;28;20033;-72
2021/07/19 08:19:09;;;;;;;5.57;3.72;;;;;;;21.16;47.09;101820.13;7963966;28;20443;-72
2021/07/19 08:23:00;;;;;;;7.63;4.40;;;;;;;21.05;46.63;101806.94;7960364;28;20087;-73
2021/07/19 08:26:51;;;;;;;7.05;4.22;;;;;;;20.95;46.77;101810.66;7955929;28;20045;-71
2021/07/19 08:30:41;;;;;;;7.68;5.07;;;;;;;20.75;46.58;101807.22;7959743;28;20094;-71
2021/07/19 08:34:33;;;;;;;7.15;5.22;;;;;;;20.59;46.45;101809.66;7961295;28;20034;-70
2021/07/19 08:38:24;;;;;;;10.43;5.00;;;;;;;20.48;46.37;101810.59;7958188;28;20061;-72
2021/07/19 08:42:15;;;;;;;8.18;5.38;;;;;;;20.34;46.44;101811.06;7966271;28;20040;-71
2021/07/19 08:46:07;;;;;;;7.05;4.97;;;;;;;20.26;46.93;101814.41;7967898;28;20044;-71
2021/07/19 08:49:58;;;;;;;7.32;5.15;;;;;;;20.16;46.84;101807.44;7958605;28;20032;-73
2021/07/19 08:53:51;;;;;;;8.45;4.75;;;;;;;20.16;47.21;101813.59;7951717;28;20041;-71
2021/07/19 08:57:46;;;;;;;6.88;4.32;;;;;;;20.14;46.85;101812.03;7945809;28;20029;-70
2021/07/19 09:01:39;;;;;;;8.65;5.32;;;;;;;20.15;47.02;101803.06;7950057;28;20036;-71
2021/07/19 09:05:31;;;;;;;7.20;4.90;;;;;;;20.17;47.11;101806.44;7937071;28;20061;-70
2021/07/19 09:09:28;;;;;;;8.95;6.03;;;;;;;20.20;46.68;101801.66;7941383;28;20035;-69
2021/07/19 09:13:22;;;;;;;10.30;6.70;;;;;;;20.26;46.60;101813.59;7937817;28;20054;-70
2021/07/19 09:17:27;;;;;;;8.23;6.07;;;;;;;20.31;46.92;101803.31;7941288;28;20048;-71
2021/07/19 09:21:29;;;;;;;8.52;5.93;;;;;;;20.29;46.72;101794.63;7939028;28;20037;-71
2021/07/19 09:25:20;;;;;;;8.73;6.32;;;;;;;20.40;46.75;101813.16;7932164;28;20022;-71
2021/07/19 09:29:14;;;;;;;11.00;7.03;;;;;;;20.33;46.65;101796.03;7934727;28;20555;-71
2021/07/19 09:33:18;;;;;;;7.05;5.22;;;;;;;20.37;46.52;101797.44;7952613;28;20057;-71
2021/07/19 09:37:12;;;;;;;12.98;5.57;;;;;;;20.32;46.45;101801.50;7933441;28;20041;-71
2021/07/19 09:41:05;;;;;;;8.70;5.50;;;;;;;20.27;46.63;101805.44;7951284;28;20034;-71
2021/07/19 09:44:59;;;;;;;14.38;5.47;;;;;;;20.20;46.50;101787.47;7937644;28;20576;-71
2021/07/19 09:48:56;;;;;;;7.47;4.75;;;;;;;20.23;46.44;101797.88;7936611;28;20030;-71
2021/07/19 09:52:47;;;;;;;9.50;5.50;;;;;;;20.24;46.43;101796.88;7936999;28;20067;-70
2021/07/19 09:56:39;;;;;;;7.55;4.60;;;;;;;20.26;46.60;101801.09;7933845;28;20322;-71
2021/07/19 10:00:33;;;;;;;10.50;5.25;;;;;;;20.26;46.47;101795.75;7954055;28;21224;-70
2021/07/19 10:04:42;;;;;;;10.30;5.57;;;;;;;20.27;46.35;101797.44;7938837;28;20041;-71
2021/07/19 10:08:33;;;;;;;10.18;5.88;;;;;;;20.27;46.43;101797.44;7939830;28;20030;-70
2021/07/19 10:12:24;;;;;;;8.70;5.55;;;;;;;20.28;46.32;101798.28;7935575;28;20044;-70
2021/07/19 10:16:17;;;;;;;8.45;5.45;;;;;;;20.28;46.36;101793.78;7936648;28;20041;-71
2021/07/19 10:20:08;;;;;;;8.50;5.80;;;;;;;20.30;46.50;101791.00;7939753;28;20049;-71
2021/07/19 10:24:01;;;;;;;9.30;5.45;;;;;;;20.35;46.47;101798.53;7941752;28;20119;-71
2021/07/19 10:27:52;;;;;;;10.48;5.85;;;;;;;20.37;46.27;101800.09;7937982;28;20096;-71
2021/07/19 10:31:43;;;;;;;8.15;5.18;;;;;;;20.37;46.13;101797.44;7942892;28;20025;-71
2021/07/19 10:35:35;;;;;;;9.88;6.35;;;;;;;20.32;46.03;101786.34;7941408;28;20049;-70
2021/07/19 10:39:34;;;;;;;13.55;6.20;;;;;;;20.31;46.00;101781.97;7939136;28;21221;-70
2021/07/19 10:43:27;;;;;;;7.68;5.00;;;;;;;20.33;46.17;101777.38;7939328;28;20121;-71
2021/07/19 10:47:22;;;;;;;8.90;5.88;;;;;;;20.38;45.75;101780.44;7937571;28;20038;-70
2021/07/19 10:51:18;;;;;;;7.55;5.70;;;;;;;20.46;45.43;101777.06;7940713;28;20037;-71
2021/07/19 10:55:11;;;;;;;11.32;6.93;;;;;;;20.60;46.02;101765.94;7941701;28;20037;-71
2021/07/19 10:59:02;;;;;;;9.40;6.72;;;;;;;20.75;45.75;101758.31;7939174;28;20051;-70
2021/07/19 11:03:07;;;;;;;10.88;7.65;;;;;;;20.81;45.76;101755.03;7940718;28;20099;-71
2021/07/19 11:06:58;;;;;;;12.50;8.23;;;;;;;20.91;45.56;101762.03;7939313;28;20041;-71
2021/07/19 11:10:48;;;;;;;11.20;7.47;;;;;;;20.95;45.71;101758.09;7942048;28;20033;-70
2021/07/19 11:14:56;;;;;;;13.35;8.25;;;;;;;20.94;45.18;101759.06;7944725;28;20418;-71
2021/07/19 11:18:55;;;;;;;14.07;7.90;;;;;;;20.98;45.15;101760.47;7949792;28;20106;-71
2021/07/19 11:22:46;;;;;;;14.70;9.23;;;;;;;21.02;45.07;101756.50;7937729;28;20034;-71
2021/07/19 11:26:48;;;;;;;12.93;8.98;;;;;;;21.10;44.65;101747.75;7938378;28;20033;-71
2021/07/19 11:30:38;;;;;;;12.90;8.82;;;;;;;21.18;44.61;101750.50;7940735;28;20026;-71
2021/07/19 11:34:30;;;;;;;12.50;9.23;;;;;;;21.17;44.85;101736.31;7939190;28;20038;-71
2021/07/19 11:38:21;;;;;;;14.60;8.52;;;;;;;21.15;44.53;101743.63;7939493;28;20502;-71
2021/07/19 11:42:12;;;;;;;13.45;8.50;;;;;;;21.14;44.64;101749.97;7942959;28;20030;-71
2021/07/19 11:46:03;;;;;;;14.00;7.82;;;;;;;21.21;44.65;101749.41;7941498;28;20068;-71
2021/07/19 11:50:04;;;;;;;13.27;8.15;;;;;;;21.27;44.56;101743.47;7939248;28;20034;-71
2021/07/19 11:53:56;;;;;;;10.82;7.35;;;;;;;21.34;44.55;101750.72;7942267;28;20115;-71
2021/07/19 11:57:52;;;;;;;10.27;7.03;;;;;;;21.33;44.34;101732.19;7936784;28;20034;-71
2021/07/19 12:01:43;;;;;;;10.23;6.95;;;;;;;21.40;44.59;101734.09;7939933;28;20030;-71
2021/07/19 12:05:35;;;;;;;8.82;6.07;;;;;;;21.50;44.75;101734.84;7941049;28;20409;-71
2021/07/19 12:09:25;;;;;;;9.40;6.20;;;;;;;21.57;44.42;101737.78;7943545;28;20057;-70
2021/07/19 12:13:16;;;;;;;10.05;6.05;;;;;;;21.67;44.37;101738.53;7943186;28;20037;-72
2021/07/19 12:17:08;;;;;;;10.30;6.38;;;;;;;21.74;44.28;101739.59;7938318;28;20052;-71
2021/07/19 12:21:08;;;;;;;10.13;6.15;;;;;;;21.79;44.29;101731.13;7942028;28;20057;-70
2021/07/19 12:24:59;;;;;;;9.18;5.93;;;;;;;21.86;44.32;101721.53;7939792;28;20444;-71
2021/07/19 12:28:55;;;;;;;10.65;5.70;;;;;;;21.93;44.25;101723.41;7934341;28;20556;-71
2021/07/19 12:32:49;;;;;;;7.90;5.53;;;;;;;21.96;44.49;101711.56;7939706;28;20498;-71
2021/07/19 12:36:45;;;;;;;12.30;6.47;;;;;;;22.00;43.93;101711.09;7937638;28;20022;-71
2021/07/19 12:40:37;;;;;;;13.13;6.75;;;;;;;22.05;43.83;101707.94;7938959;28;20040;-71
2021/07/19 12:44:30;;;;;;;7.97;5.35;;;;;;;22.06;43.76;101709.63;7938080;28;20117;-71
2021/07/19 12:48:21;;;;;;;13.50;6.18;;;;;;;22.01;43.79;101702.06;7936158;28;20505;-71
2021/07/19 12:52:17;;;;;;;8.93;6.30;;;;;;;22.04;43.49;101704.44;7938027;28;20744;-71
2021/07/19 12:56:09;;;;;;;13.27;6.53;;;;;;;22.07;43.56;101705.97;7934036;28;20045;-70
2021/07/19 13:00:15;;;;;;;8.40;5.63;;;;;;;22.07;43.43;101705.97;7938822;28;20042;-71
2021/07/19 13:04:08;;;;;;;12.93;6.28;;;;;;;22.10;43.53;101705.66;7938508;28;20044;-71
2021/07/19 13:07:59;;;;;;;7.15;5.05;;;;;;;22.05;43.51;101691.91;7937700;28;20042;-71
2021/07/19 13:12:10;;;;;;;10.85;5.25;;;;;;;22.08;43.44;101702.31;7935783;28;20037;-71
2021/07/19 13:16:01;;;;;;;7.13;5.00;;;;;;;22.09;43.19;101698.63;7936004;28;20128;-70
2021/07/19 13:19:55;;;;;;;9.82;6.18;;;;;;;22.08;43.00;101697.78;7937714;28;20053;-71
2021/07/19 13:23:45;;;;;;;7.53;5.40;;;;;;;22.07;43.09;101693.44;7943776;28;20034;-70
2021/07/19 13:27:41;;;;;;;6.57;4.88;;;;;;;22.08;43.14;101694.28;7933014;28;20063;-69
2021/07/19 13:31:32;;;;;;;7.72;5.22;;;;;;;22.09;43.14;101702.13;7940858;28;20120;-70
2021/07/19 13:35:23;;;;;;;8.38;4.90;;;;;;;22.07;43.50;101701.47;7934786;28;20131;-71
2021/07/19 13:39:25;;;;;;;9.35;5.15;;;;;;;22.02;43.37;101694.91;7936628;28;20040;-70
2021/07/19 13:43:20;;;;;;;12.27;5.95;;;;;;;22.02;43.18;101692.22;7938147;28;20052;-71
2021/07/19 13:47:10;;;;;;;9.05;4.95;;;;;;;22.00;42.99;101689.69;7937000;28;20034;-71
2021/07/19 13:51:03;;;;;;;8.23;5.15;;;;;;;22.02;43.01;101695.72;7938633;28;20040;-71
2021/07/19 13:54:53;;;;;;;8.38;5.65;;;;;;;21.98;43.44;101697.03;7934261;28;20044;-70
2021/07/19 13:58:44;;;;;;;8.30;5.35;;;;;;;21.97;43.03;101697.19;7933117;28;20061;-71
2021/07/19 14:02:35;;;;;;;7.32;4.85;;;;;;;21.93;43.18;101688.63;7939104;28;20065;-71
2021/07/19 14:06:25;;;;;;;8.13;4.63;;;;;;;21.98;43.23;101690.84;7933281;28;20503;-71
2021/07/19 14:10:16;;;;;;;7.00;4.38;;;;;;;22.02;43.31;101682.34;7938462;28;20037;-70
2021/07/19 14:14:08;;;;;;;8.60;4.60;;;;;;;22.04;43.41;101677.69;7937864;28;20050;-71
2021/07/19 14:18:00;;;;;;;8.27;5.60;;;;;;;22.00;43.18;101665.59;7936745;28;20046;-71
2021/07/19 14:21:51;;;;;;;7.40;5.15;;;;;;;21.94;43.42;101649.38;7935550;28;20042;-71
2021/07/19 14:25:42;;;;;;;9.32;5.57;;;;;;;21.92;43.11;101665.56;7931040;28;20041;-70
2021/07/19 14:29:33;;;;;;;9.63;5.57;;;;;;;21.85;43.17;101663.66;7936491;28;20502;-70
2021/07/19 14:33:25;;;;;;;11.70;6.20;;;;;;;21.78;43.34;101655.41;7934705;28;20516;-70
2021/07/19 14:37:15;;;;;;;7.60;5.32;;;;;;;21.74;43.13;101654.03;7934617;28;20042;-71
2021/07/19 14:41:06;;;;;;;7.43;4.95;;;;;;;21.74;43.29;101651.38;7937615;28;20053;-71
2021/07/19 14:44:57;;;;;;;9.10;5.72;;;;;;;21.78;43.16;101644.72;7933843;28;20048;-70
2021/07/19 14:48:47;;;;;;;7.97;5.13;;;;;;;21.85;43.02;101652.97;7937059;28;20034;-71
2021/07/19 14:52:38;;;;;;;10.60;5.03;;;;;;;21.85;43.15;101642.28;7938616;28;20152;-71
2021/07/19 14:56:30;;;;;;;8.63;4.53;;;;;;;21.93;43.04;101645.00;7939519;28;20684;-73
2021/07/19 15:00:21;;;;;;;10.20;5.43;;;;;;;21.90;42.90;101634.63;7953419;28;20557;-73
2021/07/19 15:04:13;;;;;;;10.48;5.78;;;;;;;21.95;42.69;101635.00;7957543;28;20040;-71
2021/07/19 15:08:04;;;;;;;10.90;5.65;;;;;;;21.97;42.80;101635.66;7951883;28;20037;-70
2021/07/19 15:11:55;;;;;;;10.77;5.10;;;;;;;22.00;42.88;101630.03;7940553;28;20061;-70
2021/07/19 15:15:45;;;;;;;8.65;5.10;;;;;;;22.03;43.16;101625.19;7940128;28;20037;-71
2021/07/19 15:19:36;;;;;;;7.25;4.97;;;;;;;22.08;43.21;101638.91;7939051;28;20057;-72
2021/07/19 15:23:27;;;;;;;9.82;4.80;;;;;;;22.05;43.30;101628.53;7940875;28;20375;-70
2021/07/19 15:27:17;;;;;;;9.65;5.45;;;;;;;22.07;43.18;101634.56;7939046;28;20037;-72
2021/07/19 15:31:08;;;;;;;8.65;5.35;;;;;;;22.05;42.92;101636.56;7955496;28;20398;-72
2021/07/19 15:34:58;;;;;;;7.97;4.60;;;;;;;21.97;42.92;101625.81;7946170;28;20030;-72
2021/07/19 15:38:52;;;;;;;8.68;5.90;;;;;;;21.94;43.01;101617.25;7946136;28;20099;-72
2021/07/19 15:42:43;;;;;;;9.25;5.88;;;;;;;21.96;42.93;101623.28;7940584;28;20034;-71
2021/07/19 15:46:34;;;;;;;10.18;5.50;;;;;;;21.93;43.25;101621.75;7940067;28;20080;-72
2021/07/19 15:50:25;;;;;;;8.18;4.80;;;;;;;21.94;43.00;101626.13;7940484;28;20021;-71
2021/07/19 15:54:15;;;;;;;9.27;5.05;;;;;;;21.99;43.04;101615.81;7938285;28;20036;-72
2021/07/19 15:58:06;;;;;;;8.27;5.47;;;;;;;22.02;42.96;101611.97;7934788;28;20044;-72
2021/07/19 16:01:56;;;;;;;8.80;5.07;;;;;;;22.01;43.14;101602.25;7941463;28;20044;-71
2021/07/19 16:05:48;;;;;;;10.93;5.38;;;;;;;22.08;43.00;101603.31;7938546;28;20025;-72
2021/07/19 16:09:39;;;;;;;9.02;5.88;;;;;;;22.05;42.95;101603.59;7937158;28;20030;-71
2021/07/19 16:13:30;;;;;;;9.10;5.30;;;;;;;22.03;42.97;101609.13;7938782;28;20045;-72
2021/07/19 16:17:20;;;;;;;10.77;6.50;;;;;;;21.99;42.99;101612.28;7936209;28;20030;-71
2021/07/19 16:21:13;;;;;;;9.48;5.20;;;;;;;21.95;42.96;101606.41;7941289;28;20450;-72
2021/07/19 16:25:07;;;;;;;11.70;5.45;;;;;;;21.91;42.83;101610.41;7934916;28;20041;-71
2021/07/19 16:28:58;;;;;;;12.13;5.93;;;;;;;21.82;42.91;101597.94;7939322;28;20084;-71
2021/07/19 16:32:49;;;;;;;9.32;5.82;;;;;;;21.79;42.83;101595.59;7940704;28;20129;-71
2021/07/19 16:36:39;;;;;;;10.00;5.40;;;;;;;21.78;42.88;101595.72;7938959;28;20040;-71
2021/07/19 16:40:30;;;;;;;11.45;5.63;;;;;;;21.73;42.85;101590.84;7936672;28;20116;-71
2021/07/19 16:44:21;;;;;;;11.02;6.32;;;;;;;21.77;42.53;101602.06;7936768;28;20042;-71
2021/07/19 16:48:11;;;;;;;10.48;5.38;;;;;;;21.73;42.97;101581.97;7939821;28;20045;-71
2021/07/19 16:52:02;;;;;;;10.57;5.80;;;;;;;21.78;43.00;101588.56;7941001;28;20897;-71
2021/07/19 16:55:53;;;;;;;8.80;5.68;;;;;;;21.80;43.36;101591.88;7933077;28;20045;-71
2021/07/19 16:59:44;;;;;;;9.20;5.30;;;;;;;21.77;43.27;101580.66;7942650;28;20041;-71
2021/07/19 17:03:35;;;;;;;8.57;5.82;;;;;;;21.80;43.19;101586.53;7947337;28;20034;-72
2021/07/19 17:07:26;;;;;;;9.27;5.95;;;;;;;21.77;42.91;101584.19;7949213;28;20055;-69
2021/07/19 17:11:17;;;;;;;12.68;4.88;;;;;;;21.68;43.19;101570.91;7949031;28;20029;-72
2021/07/19 17:15:13;;;;;;;7.70;5.35;;;;;;;21.73;43.31;101579.31;7950090;28;20037;-72
2021/07/19 17:19:03;;;;;;;8.57;5.03;;;;;;;21.69;43.56;101572.59;7946279;28;20037;-72
2021/07/19 17:22:54;;;;;;;9.90;5.70;;;;;;;21.63;43.37;101574.91;7941746;28;20040;-71
2021/07/19 17:26:46;;;;;;;7.75;5.03;;;;;;;21.59;43.35;101570.00;7940584;28;20061;-72
2021/07/19 17:30:38;;;;;;;12.43;6.18;;;;;;;21.53;43.12;101566.16;7946639;28;20132;-71
2021/07/19 17:34:30;;;;;;;10.00;5.57;;;;;;;21.48;43.43;101560.44;7950661;28;20037;-71
2021/07/19 17:38:25;;;;;;;7.60;5.28;;;;;;;21.43;43.34;101572.56;7943615;28;20288;-71
2021/07/19 17:42:16;;;;;;;11.07;5.47;;;;;;;21.38;43.68;101569.56;7946890;28;20041;-72
2021/07/19 17:46:07;;;;;;;11.40;5.45;;;;;;;21.32;43.67;101559.47;7936700;28;20042;-71
2021/07/19 17:49:57;;;;;;;10.15;5.22;;;;;;;21.17;43.99;101551.94;7933167;28;20127;-73
2021/07/19 17:53:48;;;;;;;9.65;5.38;;;;;;;21.20;44.00;101561.53;7941937;28;20686;-72
2021/07/19 17:57:39;;;;;;;8.55;5.25;;;;;;;21.14;44.22;101565.63;7935120;28;20402;-71
2021/07/19 18:01:29;;;;;;;10.68;5.88;;;;;;;21.09;44.11;101559.06;7937940;28;20091;-72